sensor_id;sensor_type;location;lat;lon;timestamp;P1;durP1;ratioP1;P2;durP2;ratioP2
30384;SDS011;17181;51.002;4.096;2023-03-14T13:12:37;8.90;;;1.63;;
30384;SDS011;17181;51.002;4.096;2023-03-14T13:15:48;20.30;;;1.90;;
30384;SDS011;17181;51.002;4.096;2023-03-14T13:21:17;16.43;;;1.07;;
30384;SDS011;17181;51.002;4.096;2023-03-14T13:23:54;2.67;;;0.63;;
30384;SDS011;17181;51.002;4.096;2023-03-14T13:26:20;3.70;;;1.03;;
30384;SDS011;17181;51.002;4.096;2023-03-14T13:28:45;18.33;;;1.20;;
30384;SDS011;17181;51.002;4.096;2023-03-14T13:31:22;1.27;;;0.30;;
30384;SDS011;17181;51.002;4.096;2023-03-14T13:34:02;13.67;;;1.40;;
30384;SDS011;17181;51.002;4.096;2023-03-14T13:36:35;12.47;;;3.50;;
30384;SDS011;17181;51.002;4.096;2023-03-14T13:39:01;4.20;;;2.40;;
30384;SDS011;17181;51.002;4.096;2023-03-14T13:41:29;10.30;;;2.07;;
30384;SDS011;17181;51.002;4.096;2023-03-14T13:44:01;6.90;;;1.37;;
30384;SDS011;17181;51.002;4.096;2023-03-14T13:46:30;7.33;;;1.53;;
30384;SDS011;17181;51.002;4.096;2023-03-14T13:49:01;18.53;;;2.13;;
30384;SDS011;17181;51.002;4.096;2023-03-14T13:51:29;15.83;;;3.17;;
30384;SDS011;17181;51.002;4.096;2023-03-14T13:53:58;10.80;;;1.03;;
30384;SDS011;17181;51.002;4.096;2023-03-14T13:56:26;0.40;;;0.40;;
30384;SDS011;17181;51.002;4.096;2023-03-14T13:58:53;5.10;;;1.30;;
30384;SDS011;17181;51.002;4.096;2023-03-14T14:01:20;3.63;;;0.50;;
30384;SDS011;17181;51.002;4.096;2023-03-14T14:03:50;2.60;;;0.73;;
30384;SDS011;17181;51.002;4.096;2023-03-14T14:08:59;0.33;;;0.30;;
30384;SDS011;17181;51.002;4.096;2023-03-14T14:11:46;2.10;;;1.23;;
30384;SDS011;17181;51.002;4.096;2023-03-14T14:14:35;1.70;;;0.40;;
30384;SDS011;17181;51.002;4.096;2023-03-14T14:17:12;2.57;;;0.40;;
30384;SDS011;17181;51.002;4.096;2023-03-14T14:19:43;0.27;;;0.20;;
30384;SDS011;17181;51.002;4.096;2023-03-14T14:22:10;0.27;;;0.20;;
30384;SDS011;17181;51.002;4.096;2023-03-14T14:24:36;0.87;;;0.30;;
30384;SDS011;17181;51.002;4.096;2023-03-14T14:27:12;9.90;;;0.70;;
30384;SDS011;17181;51.002;4.096;2023-03-14T14:29:43;0.73;;;0.40;;
30384;SDS011;17181;51.002;4.096;2023-03-14T14:32:21;10.43;;;1.03;;
30384;SDS011;17181;51.002;4.096;2023-03-14T14:34:55;3.00;;;0.37;;
30384;SDS011;17181;51.002;4.096;2023-03-14T14:37:31;0.00;;;0.00;;
30384;SDS011;17181;51.002;4.096;2023-03-14T14:39:59;2.33;;;0.50;;
30384;SDS011;17181;51.002;4.096;2023-03-14T14:42:31;0.30;;;0.27;;
30384;SDS011;17181;51.002;4.096;2023-03-14T14:44:58;0.00;;;0.00;;
30384;SDS011;17181;51.002;4.096;2023-03-14T14:47:25;0.10;;;0.10;;
30384;SDS011;17181;51.002;4.096;2023-03-14T14:49:53;0.73;;;0.20;;
30384;SDS011;17181;51.002;4.096;2023-03-14T14:52:43;0.40;;;0.40;;
30384;SDS011;17181;51.002;4.096;2023-03-14T14:55:16;5.50;;;0.40;;
30384;SDS011;17181;51.002;4.096;2023-03-14T14:57:48;1.60;;;0.33;;
30384;SDS011;17181;51.002;4.096;2023-03-14T15:00:20;0.10;;;0.10;;
30384;SDS011;17181;51.002;4.096;2023-03-14T15:02:54;0.20;;;0.20;;
30384;SDS011;17181;51.002;4.096;2023-03-14T15:05:25;0.00;;;0.00;;
30384;SDS011;17181;51.002;4.096;2023-03-14T15:07:52;0.10;;;0.10;;
30384;SDS011;17181;51.002;4.096;2023-03-14T15:10:19;0.27;;;0.27;;
30384;SDS011;17181;51.002;4.096;2023-03-14T15:12:46;0.00;;;0.00;;
30384;SDS011;17181;51.002;4.096;2023-03-14T15:15:14;0.00;;;0.00;;
30384;SDS011;17181;51.002;4.096;2023-03-14T15:17:40;0.87;;;0.43;;
30384;SDS011;17181;51.002;4.096;2023-03-14T15:20:06;0.23;;;0.23;;
30384;SDS011;17181;51.002;4.096;2023-03-14T15:22:38;0.30;;;0.30;;
30384;SDS011;17181;51.002;4.096;2023-03-14T15:25:04;2.67;;;0.70;;
30384;SDS011;17181;51.002;4.096;2023-03-14T15:27:31;0.00;;;0.00;;
30384;SDS011;17181;51.002;4.096;2023-03-14T15:29:58;0.17;;;0.17;;
30384;SDS011;17181;51.002;4.096;2023-03-14T15:32:24;0.00;;;0.00;;
30384;SDS011;17181;51.002;4.096;2023-03-14T15:34:52;5.07;;;0.80;;
30384;SDS011;17181;51.002;4.096;2023-03-14T15:37:20;1.40;;;0.53;;
30384;SDS011;17181;51.002;4.096;2023-03-14T15:39:46;1.23;;;0.80;;
30384;SDS011;17181;51.002;4.096;2023-03-14T15:42:12;3.93;;;0.77;;
30384;SDS011;17181;51.002;4.096;2023-03-14T15:44:38;4.30;;;0.73;;
30384;SDS011;17181;51.002;4.096;2023-03-14T15:47:04;0.10;;;0.10;;
30384;SDS011;17181;51.002;4.096;2023-03-14T15:49:31;8.50;;;1.53;;
30384;SDS011;17181;51.002;4.096;2023-03-14T15:51:57;0.33;;;0.33;;
30384;SDS011;17181;51.002;4.096;2023-03-14T15:54:24;1.37;;;0.50;;
30384;SDS011;17181;51.002;4.096;2023-03-14T15:56:53;9.83;;;1.07;;
30384;SDS011;17181;51.002;4.096;2023-03-14T15:59:20;8.37;;;1.90;;
30384;SDS011;17181;51.002;4.096;2023-03-14T16:01:46;2.97;;;1.17;;
30384;SDS011;17181;51.002;4.096;2023-03-14T16:04:13;4.30;;;1.07;;
30384;SDS011;17181;51.002;4.096;2023-03-14T16:06:39;10.67;;;1.67;;
30384;SDS011;17181;51.002;4.096;2023-03-14T16:09:05;6.37;;;0.87;;
30384;SDS011;17181;51.002;4.096;2023-03-14T16:11:30;15.87;;;1.50;;
30384;SDS011;17181;51.002;4.096;2023-03-14T16:13:56;0.30;;;0.30;;
30384;SDS011;17181;51.002;4.096;2023-03-14T16:16:22;2.17;;;1.13;;
30384;SDS011;17181;51.002;4.096;2023-03-14T16:18:48;0.43;;;0.27;;
30384;SDS011;17181;51.002;4.096;2023-03-14T16:21:15;1.53;;;0.53;;
30384;SDS011;17181;51.002;4.096;2023-03-14T16:23:43;8.83;;;1.40;;
30384;SDS011;17181;51.002;4.096;2023-03-14T16:26:11;10.30;;;1.50;;
30384;SDS011;17181;51.002;4.096;2023-03-14T16:28:39;0.77;;;0.40;;
30384;SDS011;17181;51.002;4.096;2023-03-14T16:31:10;3.93;;;0.53;;
30384;SDS011;17181;51.002;4.096;2023-03-14T16:33:37;5.63;;;0.80;;
30384;SDS011;17181;51.002;4.096;2023-03-14T16:36:04;0.53;;;0.40;;
30384;SDS011;17181;51.002;4.096;2023-03-14T16:38:32;7.20;;;2.13;;
30384;SDS011;17181;51.002;4.096;2023-03-14T16:41:09;9.53;;;1.83;;
30384;SDS011;17181;51.002;4.096;2023-03-14T16:43:37;10.53;;;1.17;;
30384;SDS011;17181;51.002;4.096;2023-03-14T16:46:05;4.43;;;1.93;;
30384;SDS011;17181;51.002;4.096;2023-03-14T16:48:39;2.23;;;0.97;;
30384;SDS011;17181;51.002;4.096;2023-03-14T16:51:05;1.60;;;0.60;;
30384;SDS011;17181;51.002;4.096;2023-03-14T16:53:31;5.40;;;1.27;;
30384;SDS011;17181;51.002;4.096;2023-03-14T16:55:57;4.40;;;1.07;;
30384;SDS011;17181;51.002;4.096;2023-03-14T16:58:24;5.33;;;1.13;;
30384;SDS011;17181;51.002;4.096;2023-03-14T17:00:50;3.83;;;1.37;;
30384;SDS011;17181;51.002;4.096;2023-03-14T17:03:16;0.33;;;0.30;;
30384;SDS011;17181;51.002;4.096;2023-03-14T17:05:49;0.67;;;0.47;;
30384;SDS011;17181;51.002;4.096;2023-03-14T17:08:17;2.33;;;0.90;;
30384;SDS011;17181;51.002;4.096;2023-03-14T17:10:43;0.47;;;0.47;;
30384;SDS011;17181;51.002;4.096;2023-03-14T17:13:10;14.43;;;1.37;;
30384;SDS011;17181;51.002;4.096;2023-03-14T17:15:36;5.13;;;0.87;;
30384;SDS011;17181;51.002;4.096;2023-03-14T17:18:02;3.27;;;1.07;;
30384;SDS011;17181;51.002;4.096;2023-03-14T17:20:29;1.10;;;0.53;;
30384;SDS011;17181;51.002;4.096;2023-03-14T17:22:55;1.03;;;0.40;;
30384;SDS011;17181;51.002;4.096;2023-03-14T17:25:21;2.30;;;1.43;;
30384;SDS011;17181;51.002;4.096;2023-03-14T17:27:46;0.30;;;0.30;;
30384;SDS011;17181;51.002;4.096;2023-03-14T17:30:12;1.07;;;0.57;;
30384;SDS011;17181;51.002;4.096;2023-03-14T17:32:38;0.23;;;0.23;;
30384;SDS011;17181;51.002;4.096;2023-03-14T17:35:04;1.03;;;1.03;;
30384;SDS011;17181;51.002;4.096;2023-03-14T17:37:30;2.20;;;1.90;;
30384;SDS011;17181;51.002;4.096;2023-03-14T17:39:55;4.33;;;3.27;;
30384;SDS011;17181;51.002;4.096;2023-03-14T17:42:25;6.07;;;3.80;;
30384;SDS011;17181;51.002;4.096;2023-03-14T17:44:52;6.73;;;3.30;;
30384;SDS011;17181;51.002;4.096;2023-03-14T17:47:18;10.47;;;2.10;;
30384;SDS011;17181;51.002;4.096;2023-03-14T17:49:44;0.53;;;0.53;;
30384;SDS011;17181;51.002;4.096;2023-03-14T17:52:11;4.60;;;1.80;;
30384;SDS011;17181;51.002;4.096;2023-03-14T17:54:37;10.10;;;2.90;;
30384;SDS011;17181;51.002;4.096;2023-03-14T17:57:03;1.60;;;0.77;;
30384;SDS011;17181;51.002;4.096;2023-03-14T17:59:29;1.77;;;1.00;;
30384;SDS011;17181;51.002;4.096;2023-03-14T18:01:55;2.87;;;0.93;;
30384;SDS011;17181;51.002;4.096;2023-03-14T18:04:20;0.30;;;0.30;;
30384;SDS011;17181;51.002;4.096;2023-03-14T18:06:46;1.00;;;0.97;;
30384;SDS011;17181;51.002;4.096;2023-03-14T18:09:12;4.73;;;1.03;;
30384;SDS011;17181;51.002;4.096;2023-03-14T18:11:38;1.17;;;0.13;;
30384;SDS011;17181;51.002;4.096;2023-03-14T18:14:04;3.13;;;0.33;;
30384;SDS011;17181;51.002;4.096;2023-03-14T18:16:32;0.00;;;0.00;;
30384;SDS011;17181;51.002;4.096;2023-03-14T18:18:58;1.43;;;0.93;;
30384;SDS011;17181;51.002;4.096;2023-03-14T18:21:24;0.00;;;0.00;;
30384;SDS011;17181;51.002;4.096;2023-03-14T18:23:54;2.50;;;1.40;;
30384;SDS011;17181;51.002;4.096;2023-03-14T18:26:20;0.77;;;0.77;;
30384;SDS011;17181;51.002;4.096;2023-03-14T18:28:48;0.57;;;0.50;;
30384;SDS011;17181;51.002;4.096;2023-03-14T18:31:14;0.80;;;0.73;;
30384;SDS011;17181;51.002;4.096;2023-03-14T18:33:40;0.30;;;0.30;;
30384;SDS011;17181;51.002;4.096;2023-03-14T18:36:07;0.50;;;0.50;;
30384;SDS011;17181;51.002;4.096;2023-03-14T18:38:33;1.03;;;0.83;;
30384;SDS011;17181;51.002;4.096;2023-03-14T18:41:06;0.00;;;0.00;;
30384;SDS011;17181;51.002;4.096;2023-03-14T18:43:32;4.10;;;1.70;;
30384;SDS011;17181;51.002;4.096;2023-03-14T18:45:58;3.30;;;1.70;;
30384;SDS011;17181;51.002;4.096;2023-03-14T18:48:24;12.13;;;2.53;;
30384;SDS011;17181;51.002;4.096;2023-03-14T18:50:50;9.50;;;0.93;;
30384;SDS011;17181;51.002;4.096;2023-03-14T18:53:16;2.20;;;1.47;;
30384;SDS011;17181;51.002;4.096;2023-03-14T18:55:43;8.23;;;2.17;;
30384;SDS011;17181;51.002;4.096;2023-03-14T18:58:09;0.23;;;0.23;;
30384;SDS011;17181;51.002;4.096;2023-03-14T19:00:35;7.00;;;1.37;;
30384;SDS011;17181;51.002;4.096;2023-03-14T19:03:02;2.23;;;1.73;;
30384;SDS011;17181;51.002;4.096;2023-03-14T19:05:28;2.60;;;1.00;;
30384;SDS011;17181;51.002;4.096;2023-03-14T19:07:55;0.00;;;0.00;;
30384;SDS011;17181;51.002;4.096;2023-03-14T19:10:24;5.20;;;2.30;;
30384;SDS011;17181;51.002;4.096;2023-03-14T19:12:50;0.87;;;0.77;;
30384;SDS011;17181;51.002;4.096;2023-03-14T19:15:16;1.20;;;1.20;;
30384;SDS011;17181;51.002;4.096;2023-03-14T19:17:42;9.97;;;2.00;;
30384;SDS011;17181;51.002;4.096;2023-03-14T19:20:08;15.13;;;2.93;;
30384;SDS011;17181;51.002;4.096;2023-03-14T19:22:35;1.17;;;1.13;;
30384;SDS011;17181;51.002;4.096;2023-03-14T19:25:01;8.90;;;2.40;;
30384;SDS011;17181;51.002;4.096;2023-03-14T19:27:28;1.30;;;1.20;;
30384;SDS011;17181;51.002;4.096;2023-03-14T19:29:53;5.20;;;1.57;;
30384;SDS011;17181;51.002;4.096;2023-03-14T19:32:19;9.93;;;2.47;;
30384;SDS011;17181;51.002;4.096;2023-03-14T19:34:45;0.87;;;0.87;;
30384;SDS011;17181;51.002;4.096;2023-03-14T19:37:11;3.07;;;2.07;;
30384;SDS011;17181;51.002;4.096;2023-03-14T19:39:36;4.20;;;2.13;;
30384;SDS011;17181;51.002;4.096;2023-03-14T19:42:02;9.27;;;2.97;;
30384;SDS011;17181;51.002;4.096;2023-03-14T19:44:28;2.47;;;2.17;;
30384;SDS011;17181;51.002;4.096;2023-03-14T19:46:54;6.43;;;1.63;;
30384;SDS011;17181;51.002;4.096;2023-03-14T19:49:20;0.63;;;0.47;;
30384;SDS011;17181;51.002;4.096;2023-03-14T19:51:46;3.47;;;1.90;;
30384;SDS011;17181;51.002;4.096;2023-03-14T19:54:15;4.13;;;0.90;;
30384;SDS011;17181;51.002;4.096;2023-03-14T19:56:40;3.83;;;2.03;;
30384;SDS011;17181;51.002;4.096;2023-03-14T19:59:06;14.60;;;1.50;;
30384;SDS011;17181;51.002;4.096;2023-03-14T20:01:32;0.40;;;0.40;;
30384;SDS011;17181;51.002;4.096;2023-03-14T20:03:59;0.10;;;0.10;;
30384;SDS011;17181;51.002;4.096;2023-03-14T20:06:28;1.50;;;1.40;;
30384;SDS011;17181;51.002;4.096;2023-03-14T20:08:54;8.37;;;2.40;;
30384;SDS011;17181;51.002;4.096;2023-03-14T20:11:22;3.67;;;2.10;;
30384;SDS011;17181;51.002;4.096;2023-03-14T20:13:48;3.90;;;1.83;;
30384;SDS011;17181;51.002;4.096;2023-03-14T20:16:13;8.53;;;2.73;;
30384;SDS011;17181;51.002;4.096;2023-03-14T20:18:39;13.70;;;2.53;;
30384;SDS011;17181;51.002;4.096;2023-03-14T20:21:06;5.47;;;2.50;;
30384;SDS011;17181;51.002;4.096;2023-03-14T20:23:33;3.03;;;2.00;;
30384;SDS011;17181;51.002;4.096;2023-03-14T20:25:59;4.87;;;1.87;;
30384;SDS011;17181;51.002;4.096;2023-03-14T20:28:28;3.23;;;1.60;;
30384;SDS011;17181;51.002;4.096;2023-03-14T20:30:54;2.37;;;1.63;;
30384;SDS011;17181;51.002;4.096;2023-03-14T20:33:20;0.80;;;0.80;;
30384;SDS011;17181;51.002;4.096;2023-03-14T20:35:56;0.30;;;0.30;;
30384;SDS011;17181;51.002;4.096;2023-03-14T20:38:23;0.73;;;0.63;;
30384;SDS011;17181;51.002;4.096;2023-03-14T20:40:50;1.13;;;0.50;;
30384;SDS011;17181;51.002;4.096;2023-03-14T20:43:17;1.77;;;1.37;;
30384;SDS011;17181;51.002;4.096;2023-03-14T20:45:43;0.80;;;0.80;;
30384;SDS011;17181;51.002;4.096;2023-03-14T20:48:15;2.10;;;0.50;;
30384;SDS011;17181;51.002;4.096;2023-03-14T20:50:41;2.03;;;1.10;;
30384;SDS011;17181;51.002;4.096;2023-03-14T20:53:07;0.43;;;0.43;;
30384;SDS011;17181;51.002;4.096;2023-03-14T20:55:33;0.67;;;0.27;;
30384;SDS011;17181;51.002;4.096;2023-03-14T20:57:58;0.00;;;0.00;;
30384;SDS011;17181;51.002;4.096;2023-03-14T21:00:25;1.00;;;0.20;;
30384;SDS011;17181;51.002;4.096;2023-03-14T21:02:51;4.17;;;1.17;;
30384;SDS011;17181;51.002;4.096;2023-03-14T21:05:18;0.13;;;0.13;;
30384;SDS011;17181;51.002;4.096;2023-03-14T21:07:44;1.13;;;0.63;;
30384;SDS011;17181;51.002;4.096;2023-03-14T21:10:10;0.30;;;0.30;;
30384;SDS011;17181;51.002;4.096;2023-03-14T21:12:38;0.33;;;0.33;;
30384;SDS011;17181;51.002;4.096;2023-03-14T21:15:05;0.37;;;0.37;;
30384;SDS011;17181;51.002;4.096;2023-03-14T21:17:32;5.97;;;0.93;;
30384;SDS011;17181;51.002;4.096;2023-03-14T21:19:59;0.13;;;0.13;;
30384;SDS011;17181;51.002;4.096;2023-03-14T21:22:25;0.83;;;0.70;;
30384;SDS011;17181;51.002;4.096;2023-03-14T21:24:53;0.50;;;0.50;;
30384;SDS011;17181;51.002;4.096;2023-03-14T21:27:22;2.87;;;1.47;;
30384;SDS011;17181;51.002;4.096;2023-03-14T21:29:48;1.27;;;1.17;;
30384;SDS011;17181;51.002;4.096;2023-03-14T21:32:14;1.13;;;1.13;;
30384;SDS011;17181;51.002;4.096;2023-03-14T21:34:40;0.70;;;0.70;;
30384;SDS011;17181;51.002;4.096;2023-03-14T21:37:05;20.53;;;0.87;;
30384;SDS011;17181;51.002;4.096;2023-03-14T21:39:31;0.60;;;0.57;;
30384;SDS011;17181;51.002;4.096;2023-03-14T21:41:57;1.30;;;1.20;;
30384;SDS011;17181;51.002;4.096;2023-03-14T21:44:26;0.23;;;0.23;;
30384;SDS011;17181;51.002;4.096;2023-03-14T21:46:51;1.10;;;1.10;;
30384;SDS011;17181;51.002;4.096;2023-03-14T21:49:17;0.67;;;0.40;;
30384;SDS011;17181;51.002;4.096;2023-03-14T21:51:43;0.00;;;0.00;;
30384;SDS011;17181;51.002;4.096;2023-03-14T21:54:11;0.20;;;0.20;;
30384;SDS011;17181;51.002;4.096;2023-03-14T21:56:38;0.57;;;0.57;;
30384;SDS011;17181;51.002;4.096;2023-03-14T21:59:04;0.33;;;0.33;;
30384;SDS011;17181;51.002;4.096;2023-03-14T22:01:31;6.07;;;1.43;;
30384;SDS011;17181;51.002;4.096;2023-03-14T22:03:57;0.10;;;0.10;;
30384;SDS011;17181;51.002;4.096;2023-03-14T22:06:23;0.83;;;0.83;;
30384;SDS011;17181;51.002;4.096;2023-03-14T22:08:49;4.97;;;1.43;;
30384;SDS011;17181;51.002;4.096;2023-03-14T22:11:15;0.20;;;0.20;;
30384;SDS011;17181;51.002;4.096;2023-03-14T22:13:41;2.83;;;1.93;;
30384;SDS011;17181;51.002;4.096;2023-03-14T22:16:07;8.20;;;2.33;;
30384;SDS011;17181;51.002;4.096;2023-03-14T22:18:32;0.80;;;0.80;;
30384;SDS011;17181;51.002;4.096;2023-03-14T22:20:58;2.23;;;1.30;;
30384;SDS011;17181;51.002;4.096;2023-03-14T22:23:24;4.73;;;0.70;;
30384;SDS011;17181;51.002;4.096;2023-03-14T22:25:50;22.67;;;2.03;;
30384;SDS011;17181;51.002;4.096;2023-03-14T22:28:16;1.13;;;0.90;;
30384;SDS011;17181;51.002;4.096;2023-03-14T22:30:48;10.67;;;1.77;;
30384;SDS011;17181;51.002;4.096;2023-03-14T22:33:15;3.43;;;2.10;;
30384;SDS011;17181;51.002;4.096;2023-03-14T22:35:46;8.47;;;2.80;;
30384;SDS011;17181;51.002;4.096;2023-03-14T22:38:13;10.50;;;2.60;;
30384;SDS011;17181;51.002;4.096;2023-03-14T22:40:39;14.67;;;3.57;;
30384;SDS011;17181;51.002;4.096;2023-03-14T22:43:04;6.37;;;2.50;;
30384;SDS011;17181;51.002;4.096;2023-03-14T22:45:30;6.50;;;1.63;;
30384;SDS011;17181;51.002;4.096;2023-03-14T22:47:57;5.37;;;2.23;;
30384;SDS011;17181;51.002;4.096;2023-03-14T22:50:22;3.93;;;2.73;;
30384;SDS011;17181;51.002;4.096;2023-03-14T22:52:48;3.87;;;2.60;;
30384;SDS011;17181;51.002;4.096;2023-03-14T22:55:14;16.07;;;4.30;;
30384;SDS011;17181;51.002;4.096;2023-03-14T22:57:40;4.90;;;2.90;;
30384;SDS011;17181;51.002;4.096;2023-03-14T23:00:06;3.90;;;2.13;;
30384;SDS011;17181;51.002;4.096;2023-03-14T23:02:36;12.10;;;2.67;;
30384;SDS011;17181;51.002;4.096;2023-03-14T23:05:03;7.77;;;3.47;;
30384;SDS011;17181;51.002;4.096;2023-03-14T23:07:29;14.87;;;3.03;;
30384;SDS011;17181;51.002;4.096;2023-03-14T23:09:55;12.33;;;2.63;;
30384;SDS011;17181;51.002;4.096;2023-03-14T23:12:20;9.20;;;3.40;;
30384;SDS011;17181;51.002;4.096;2023-03-14T23:14:46;5.33;;;1.67;;
30384;SDS011;17181;51.002;4.096;2023-03-14T23:17:12;5.83;;;1.83;;
30384;SDS011;17181;51.002;4.096;2023-03-14T23:19:37;6.17;;;1.67;;
30384;SDS011;17181;51.002;4.096;2023-03-14T23:22:04;5.00;;;1.73;;
30384;SDS011;17181;51.002;4.096;2023-03-14T23:24:30;7.83;;;1.53;;
30384;SDS011;17181;51.002;4.096;2023-03-14T23:26:57;1.50;;;1.37;;
30384;SDS011;17181;51.002;4.096;2023-03-14T23:29:23;3.90;;;2.20;;
30384;SDS011;17181;51.002;4.096;2023-03-14T23:31:48;1.63;;;1.50;;
30384;SDS011;17181;51.002;4.096;2023-03-14T23:34:14;4.20;;;2.80;;
30384;SDS011;17181;51.002;4.096;2023-03-14T23:36:40;9.13;;;1.97;;
30384;SDS011;17181;51.002;4.096;2023-03-14T23:39:07;3.40;;;2.07;;
30384;SDS011;17181;51.002;4.096;2023-03-14T23:41:33;4.17;;;1.67;;
30384;SDS011;17181;51.002;4.096;2023-03-14T23:43:59;6.30;;;1.70;;
30384;SDS011;17181;51.002;4.096;2023-03-14T23:46:26;5.63;;;2.00;;
30384;SDS011;17181;51.002;4.096;2023-03-14T23:48:52;8.17;;;1.87;;
30384;SDS011;17181;51.002;4.096;2023-03-14T23:51:19;4.60;;;1.60;;
30384;SDS011;17181;51.002;4.096;2023-03-14T23:53:45;2.23;;;2.03;;
30384;SDS011;17181;51.002;4.096;2023-03-14T23:56:11;5.47;;;2.43;;
30384;SDS011;17181;51.002;4.096;2023-03-14T23:58:38;2.80;;;1.83;;
